sensor_id;sensor_type;location;lat;lon;timestamp;temperature;humidity
15262;DHT22;7733;51.554;13.590;2023-02-21T00:02:32;9.70;99.90
15262;DHT22;7733;51.554;13.590;2023-02-21T00:05:16;9.70;99.90
15262;DHT22;7733;51.554;13.590;2023-02-21T00:08:00;9.60;99.90
15262;DHT22;7733;51.554;13.590;2023-02-21T00:10:45;9.60;99.90
15262;DHT22;7733;51.554;13.590;2023-02-21T00:13:29;9.60;99.90
15262;DHT22;7733;51.554;13.590;2023-02-21T00:16:15;9.60;99.90
15262;DHT22;7733;51.554;13.590;2023-02-21T00:19:01;9.50;99.90
15262;DHT22;7733;51.554;13.590;2023-02-21T00:21:45;9.60;99.90
15262;DHT22;7733;51.554;13.590;2023-02-21T00:24:29;9.60;99.90
15262;DHT22;7733;51.554;13.590;2023-02-21T00:27:14;9.60;99.90
15262;DHT22;7733;51.554;13.590;2023-02-21T00:29:58;9.60;99.90
15262;DHT22;7733;51.554;13.590;2023-02-21T00:32:42;9.60;99.90
15262;DHT22;7733;51.554;13.590;2023-02-21T00:35:26;9.60;99.90
15262;DHT22;7733;51.554;13.590;2023-02-21T00:38:11;9.60;99.90
15262;DHT22;7733;51.554;13.590;2023-02-21T00:40:56;9.60;99.90
15262;DHT22;7733;51.554;13.590;2023-02-21T00:43:40;9.60;99.90
15262;DHT22;7733;51.554;13.590;2023-02-21T00:46:24;9.60;99.90
15262;DHT22;7733;51.554;13.590;2023-02-21T00:49:09;9.60;99.90
15262;DHT22;7733;51.554;13.590;2023-02-21T00:51:53;9.60;99.90
15262;DHT22;7733;51.554;13.590;2023-02-21T00:54:37;9.70;99.90
15262;DHT22;7733;51.554;13.590;2023-02-21T00:57:22;9.60;99.90
15262;DHT22;7733;51.554;13.590;2023-02-21T01:00:09;9.70;99.90
15262;DHT22;7733;51.554;13.590;2023-02-21T01:02:58;9.70;99.90
15262;DHT22;7733;51.554;13.590;2023-02-21T01:05:43;9.70;99.90
15262;DHT22;7733;51.554;13.590;2023-02-21T01:08:27;9.70;99.90
15262;DHT22;7733;51.554;13.590;2023-02-21T01:11:15;9.70;99.90
15262;DHT22;7733;51.554;13.590;2023-02-21T01:14:01;9.70;99.90
15262;DHT22;7733;51.554;13.590;2023-02-21T01:16:45;9.80;99.90
15262;DHT22;7733;51.554;13.590;2023-02-21T01:19:30;9.80;99.90
15262;DHT22;7733;51.554;13.590;2023-02-21T01:22:14;9.80;99.90
15262;DHT22;7733;51.554;13.590;2023-02-21T01:24:58;9.80;99.90
15262;DHT22;7733;51.554;13.590;2023-02-21T01:27:43;9.80;99.90
15262;DHT22;7733;51.554;13.590;2023-02-21T01:30:27;9.80;99.90
15262;DHT22;7733;51.554;13.590;2023-02-21T01:33:11;9.70;99.90
15262;DHT22;7733;51.554;13.590;2023-02-21T01:35:55;9.60;99.90
15262;DHT22;7733;51.554;13.590;2023-02-21T01:38:39;9.50;99.90
15262;DHT22;7733;51.554;13.590;2023-02-21T01:41:24;9.50;99.90
15262;DHT22;7733;51.554;13.590;2023-02-21T01:44:38;9.50;99.90
15262;DHT22;7733;51.554;13.590;2023-02-21T01:47:22;9.50;99.90
15262;DHT22;7733;51.554;13.590;2023-02-21T01:50:33;9.40;99.90
15262;DHT22;7733;51.554;13.590;2023-02-21T01:53:21;9.40;99.90
15262;DHT22;7733;51.554;13.590;2023-02-21T01:56:09;9.40;99.90
15262;DHT22;7733;51.554;13.590;2023-02-21T01:58:57;9.40;99.90
15262;DHT22;7733;51.554;13.590;2023-02-21T02:01:58;9.30;99.90
15262;DHT22;7733;51.554;13.590;2023-02-21T02:04:46;9.40;99.90
15262;DHT22;7733;51.554;13.590;2023-02-21T02:07:31;9.30;99.90
15262;DHT22;7733;51.554;13.590;2023-02-21T02:10:17;9.30;99.90
15262;DHT22;7733;51.554;13.590;2023-02-21T02:28:06;9.20;99.90
15262;DHT22;7733;51.554;13.590;2023-02-21T02:43:13;9.00;99.90
15262;DHT22;7733;51.554;13.590;2023-02-21T02:46:01;9.00;99.90
15262;DHT22;7733;51.554;13.590;2023-02-21T02:48:38;9.00;99.90
15262;DHT22;7733;51.554;13.590;2023-02-21T02:51:10;9.00;99.90
15262;DHT22;7733;51.554;13.590;2023-02-21T02:53:38;9.00;99.90
15262;DHT22;7733;51.554;13.590;2023-02-21T02:56:06;9.00;99.90
15262;DHT22;7733;51.554;13.590;2023-02-21T02:58:54;9.10;99.90
15262;DHT22;7733;51.554;13.590;2023-02-21T03:07:20;9.20;99.90
15262;DHT22;7733;51.554;13.590;2023-02-21T03:18:35;9.50;99.90
15262;DHT22;7733;51.554;13.590;2023-02-21T03:21:14;9.60;99.90
15262;DHT22;7733;51.554;13.590;2023-02-21T03:23:48;9.70;99.90
15262;DHT22;7733;51.554;13.590;2023-02-21T03:26:16;9.60;99.90
15262;DHT22;7733;51.554;13.590;2023-02-21T03:28:43;9.60;99.90
15262;DHT22;7733;51.554;13.590;2023-02-21T03:31:12;9.60;99.90
15262;DHT22;7733;51.554;13.590;2023-02-21T03:33:41;9.60;99.90
15262;DHT22;7733;51.554;13.590;2023-02-21T03:36:08;9.60;99.90
15262;DHT22;7733;51.554;13.590;2023-02-21T03:38:34;9.50;99.90
15262;DHT22;7733;51.554;13.590;2023-02-21T03:41:00;9.50;99.90
15262;DHT22;7733;51.554;13.590;2023-02-21T03:43:26;9.50;99.90
15262;DHT22;7733;51.554;13.590;2023-02-21T03:45:52;9.60;99.90
15262;DHT22;7733;51.554;13.590;2023-02-21T03:48:17;9.60;99.90
15262;DHT22;7733;51.554;13.590;2023-02-21T03:50:43;9.70;99.90
15262;DHT22;7733;51.554;13.590;2023-02-21T03:53:09;9.70;99.90
15262;DHT22;7733;51.554;13.590;2023-02-21T03:55:35;9.70;99.90
15262;DHT22;7733;51.554;13.590;2023-02-21T03:58:03;9.70;99.90
15262;DHT22;7733;51.554;13.590;2023-02-21T04:00:28;9.70;99.90
15262;DHT22;7733;51.554;13.590;2023-02-21T04:02:54;9.70;99.90
15262;DHT22;7733;51.554;13.590;2023-02-21T04:05:20;9.70;99.90
15262;DHT22;7733;51.554;13.590;2023-02-21T04:07:46;9.70;99.90
15262;DHT22;7733;51.554;13.590;2023-02-21T04:10:12;9.70;99.90
15262;DHT22;7733;51.554;13.590;2023-02-21T04:12:38;9.70;99.90
15262;DHT22;7733;51.554;13.590;2023-02-21T04:15:04;9.70;99.90
15262;DHT22;7733;51.554;13.590;2023-02-21T04:17:30;9.70;99.90
15262;DHT22;7733;51.554;13.590;2023-02-21T04:19:56;9.60;99.90
15262;DHT22;7733;51.554;13.590;2023-02-21T04:22:21;9.60;99.90
15262;DHT22;7733;51.554;13.590;2023-02-21T04:24:47;9.60;99.90
15262;DHT22;7733;51.554;13.590;2023-02-21T04:27:14;9.60;99.90
15262;DHT22;7733;51.554;13.590;2023-02-21T04:29:40;9.60;99.90
15262;DHT22;7733;51.554;13.590;2023-02-21T04:32:05;9.50;99.90
15262;DHT22;7733;51.554;13.590;2023-02-21T04:34:31;9.50;99.90
15262;DHT22;7733;51.554;13.590;2023-02-21T04:36:57;9.40;99.90
15262;DHT22;7733;51.554;13.590;2023-02-21T04:39:22;9.40;99.90
15262;DHT22;7733;51.554;13.590;2023-02-21T04:41:48;9.40;99.90
15262;DHT22;7733;51.554;13.590;2023-02-21T04:44:14;9.30;99.90
15262;DHT22;7733;51.554;13.590;2023-02-21T04:46:42;9.40;99.90
15262;DHT22;7733;51.554;13.590;2023-02-21T04:49:11;9.40;99.90
15262;DHT22;7733;51.554;13.590;2023-02-21T04:51:37;9.30;99.90
15262;DHT22;7733;51.554;13.590;2023-02-21T04:54:03;9.30;99.90
15262;DHT22;7733;51.554;13.590;2023-02-21T04:56:29;9.30;99.90
15262;DHT22;7733;51.554;13.590;2023-02-21T04:58:55;9.30;99.90
15262;DHT22;7733;51.554;13.590;2023-02-21T05:01:21;9.20;99.90
15262;DHT22;7733;51.554;13.590;2023-02-21T05:03:48;9.20;99.90
15262;DHT22;7733;51.554;13.590;2023-02-21T05:06:22;9.20;99.90
15262;DHT22;7733;51.554;13.590;2023-02-21T05:08:49;9.10;99.90
15262;DHT22;7733;51.554;13.590;2023-02-21T05:11:17;9.10;99.90
15262;DHT22;7733;51.554;13.590;2023-02-21T05:13:44;9.10;99.90
15262;DHT22;7733;51.554;13.590;2023-02-21T05:16:11;9.20;99.90
15262;DHT22;7733;51.554;13.590;2023-02-21T05:18:37;9.10;99.90
15262;DHT22;7733;51.554;13.590;2023-02-21T05:21:05;9.10;99.90
15262;DHT22;7733;51.554;13.590;2023-02-21T05:23:31;9.00;99.90
15262;DHT22;7733;51.554;13.590;2023-02-21T05:26:06;9.00;99.90
15262;DHT22;7733;51.554;13.590;2023-02-21T05:28:34;9.00;99.90
15262;DHT22;7733;51.554;13.590;2023-02-21T05:31:01;8.90;99.90
15262;DHT22;7733;51.554;13.590;2023-02-21T05:33:27;8.90;99.90
15262;DHT22;7733;51.554;13.590;2023-02-21T05:35:53;8.90;99.90
15262;DHT22;7733;51.554;13.590;2023-02-21T05:38:20;9.00;99.90
15262;DHT22;7733;51.554;13.590;2023-02-21T05:40:47;9.00;99.90
15262;DHT22;7733;51.554;13.590;2023-02-21T05:43:13;9.00;99.90
15262;DHT22;7733;51.554;13.590;2023-02-21T05:45:39;9.00;99.90
15262;DHT22;7733;51.554;13.590;2023-02-21T05:48:06;9.00;99.90
15262;DHT22;7733;51.554;13.590;2023-02-21T05:50:32;9.00;99.90
15262;DHT22;7733;51.554;13.590;2023-02-21T05:52:59;9.00;99.90
15262;DHT22;7733;51.554;13.590;2023-02-21T05:55:25;9.10;99.90
15262;DHT22;7733;51.554;13.590;2023-02-21T05:57:51;9.10;99.90
15262;DHT22;7733;51.554;13.590;2023-02-21T06:00:23;9.10;99.90
15262;DHT22;7733;51.554;13.590;2023-02-21T06:02:52;9.10;99.90
15262;DHT22;7733;51.554;13.590;2023-02-21T06:05:19;9.10;99.90
15262;DHT22;7733;51.554;13.590;2023-02-21T06:07:47;9.10;99.90
15262;DHT22;7733;51.554;13.590;2023-02-21T06:10:14;9.10;99.90
15262;DHT22;7733;51.554;13.590;2023-02-21T06:12:40;9.10;99.90
15262;DHT22;7733;51.554;13.590;2023-02-21T06:15:09;9.10;99.90
15262;DHT22;7733;51.554;13.590;2023-02-21T06:17:37;9.20;99.90
15262;DHT22;7733;51.554;13.590;2023-02-21T06:20:04;9.10;99.90
15262;DHT22;7733;51.554;13.590;2023-02-21T06:22:31;9.10;99.90
15262;DHT22;7733;51.554;13.590;2023-02-21T06:24:57;9.10;99.90
15262;DHT22;7733;51.554;13.590;2023-02-21T06:27:23;9.10;99.90
15262;DHT22;7733;51.554;13.590;2023-02-21T06:29:49;9.10;99.90
15262;DHT22;7733;51.554;13.590;2023-02-21T06:32:14;9.20;99.90
15262;DHT22;7733;51.554;13.590;2023-02-21T06:34:42;9.20;99.90
15262;DHT22;7733;51.554;13.590;2023-02-21T06:37:08;9.20;99.90
15262;DHT22;7733;51.554;13.590;2023-02-21T06:39:34;9.10;99.90
15262;DHT22;7733;51.554;13.590;2023-02-21T06:42:00;9.10;99.90
15262;DHT22;7733;51.554;13.590;2023-02-21T06:44:25;9.10;99.90
15262;DHT22;7733;51.554;13.590;2023-02-21T06:46:51;9.00;99.90
15262;DHT22;7733;51.554;13.590;2023-02-21T06:49:19;9.00;99.90
15262;DHT22;7733;51.554;13.590;2023-02-21T06:51:46;9.00;99.90
15262;DHT22;7733;51.554;13.590;2023-02-21T06:54:12;8.90;99.90
15262;DHT22;7733;51.554;13.590;2023-02-21T06:56:39;8.90;99.90
15262;DHT22;7733;51.554;13.590;2023-02-21T06:59:04;9.00;99.90
15262;DHT22;7733;51.554;13.590;2023-02-21T07:01:31;9.00;99.90
15262;DHT22;7733;51.554;13.590;2023-02-21T07:03:57;9.00;99.90
15262;DHT22;7733;51.554;13.590;2023-02-21T07:06:23;9.00;99.90
15262;DHT22;7733;51.554;13.590;2023-02-21T07:08:49;9.00;99.90
15262;DHT22;7733;51.554;13.590;2023-02-21T07:11:16;9.00;99.90
15262;DHT22;7733;51.554;13.590;2023-02-21T07:13:53;9.00;99.90
15262;DHT22;7733;51.554;13.590;2023-02-21T07:16:21;9.10;99.90
15262;DHT22;7733;51.554;13.590;2023-02-21T07:18:47;9.00;99.90
15262;DHT22;7733;51.554;13.590;2023-02-21T07:21:14;9.10;99.90
15262;DHT22;7733;51.554;13.590;2023-02-21T07:23:42;9.10;99.90
15262;DHT22;7733;51.554;13.590;2023-02-21T07:26:09;9.10;99.90
15262;DHT22;7733;51.554;13.590;2023-02-21T07:28:35;9.10;99.90
15262;DHT22;7733;51.554;13.590;2023-02-21T07:31:01;9.10;99.90
15262;DHT22;7733;51.554;13.590;2023-02-21T07:33:27;9.10;99.90
15262;DHT22;7733;51.554;13.590;2023-02-21T07:35:53;9.10;99.90
15262;DHT22;7733;51.554;13.590;2023-02-21T07:38:23;9.10;99.90
15262;DHT22;7733;51.554;13.590;2023-02-21T07:40:53;9.10;99.90
15262;DHT22;7733;51.554;13.590;2023-02-21T07:43:20;9.10;99.90
15262;DHT22;7733;51.554;13.590;2023-02-21T07:45:46;9.20;99.90
15262;DHT22;7733;51.554;13.590;2023-02-21T07:48:11;9.20;99.90
15262;DHT22;7733;51.554;13.590;2023-02-21T07:50:41;9.20;99.90
15262;DHT22;7733;51.554;13.590;2023-02-21T07:53:08;9.20;99.90
15262;DHT22;7733;51.554;13.590;2023-02-21T07:55:34;9.20;99.90
15262;DHT22;7733;51.554;13.590;2023-02-21T07:58:00;9.20;99.90
15262;DHT22;7733;51.554;13.590;2023-02-21T08:00:27;9.30;99.90
15262;DHT22;7733;51.554;13.590;2023-02-21T08:02:53;9.30;99.90
15262;DHT22;7733;51.554;13.590;2023-02-21T08:05:19;9.30;99.90
15262;DHT22;7733;51.554;13.590;2023-02-21T08:07:46;9.30;99.90
15262;DHT22;7733;51.554;13.590;2023-02-21T08:10:19;9.40;99.90
15262;DHT22;7733;51.554;13.590;2023-02-21T08:12:46;9.30;99.90
15262;DHT22;7733;51.554;13.590;2023-02-21T08:15:12;9.40;99.90
15262;DHT22;7733;51.554;13.590;2023-02-21T08:17:38;9.30;99.90
15262;DHT22;7733;51.554;13.590;2023-02-21T08:20:03;9.40;99.90
15262;DHT22;7733;51.554;13.590;2023-02-21T08:22:31;9.40;99.90
15262;DHT22;7733;51.554;13.590;2023-02-21T08:24:56;9.40;99.90
15262;DHT22;7733;51.554;13.590;2023-02-21T08:27:22;9.50;99.90
15262;DHT22;7733;51.554;13.590;2023-02-21T08:29:49;9.50;99.90
15262;DHT22;7733;51.554;13.590;2023-02-21T08:32:17;9.50;99.90
15262;DHT22;7733;51.554;13.590;2023-02-21T08:34:47;9.50;99.90
15262;DHT22;7733;51.554;13.590;2023-02-21T08:37:13;9.50;99.90
15262;DHT22;7733;51.554;13.590;2023-02-21T08:39:48;9.50;99.90
15262;DHT22;7733;51.554;13.590;2023-02-21T08:42:20;9.50;99.90
15262;DHT22;7733;51.554;13.590;2023-02-21T08:44:46;9.50;99.90
15262;DHT22;7733;51.554;13.590;2023-02-21T08:47:14;9.50;99.90
15262;DHT22;7733;51.554;13.590;2023-02-21T08:49:45;9.40;99.90
15262;DHT22;7733;51.554;13.590;2023-02-21T08:52:13;9.40;99.90
15262;DHT22;7733;51.554;13.590;2023-02-21T08:54:43;9.40;99.90
15262;DHT22;7733;51.554;13.590;2023-02-21T08:57:10;9.30;99.90
15262;DHT22;7733;51.554;13.590;2023-02-21T08:59:43;9.30;99.90
15262;DHT22;7733;51.554;13.590;2023-02-21T09:02:35;9.30;99.90
15262;DHT22;7733;51.554;13.590;2023-02-21T09:05:13;9.30;99.90
15262;DHT22;7733;51.554;13.590;2023-02-21T09:07:41;9.30;99.90
15262;DHT22;7733;51.554;13.590;2023-02-21T09:10:08;9.30;99.90
15262;DHT22;7733;51.554;13.590;2023-02-21T09:12:36;9.30;99.90
15262;DHT22;7733;51.554;13.590;2023-02-21T09:15:06;9.30;99.90
15262;DHT22;7733;51.554;13.590;2023-02-21T09:17:32;9.30;99.90
15262;DHT22;7733;51.554;13.590;2023-02-21T09:20:03;9.30;99.90
15262;DHT22;7733;51.554;13.590;2023-02-21T09:22:31;9.30;99.90
15262;DHT22;7733;51.554;13.590;2023-02-21T09:24:57;9.30;99.90
15262;DHT22;7733;51.554;13.590;2023-02-21T09:27:24;9.30;99.90
15262;DHT22;7733;51.554;13.590;2023-02-21T09:30:19;9.30;99.90
15262;DHT22;7733;51.554;13.590;2023-02-21T09:32:49;9.30;99.90
15262;DHT22;7733;51.554;13.590;2023-02-21T09:35:16;9.40;99.90
15262;DHT22;7733;51.554;13.590;2023-02-21T09:37:43;9.40;99.90
15262;DHT22;7733;51.554;13.590;2023-02-21T09:43:00;9.40;99.90
15262;DHT22;7733;51.554;13.590;2023-02-21T09:45:31;9.40;99.90
15262;DHT22;7733;51.554;13.590;2023-02-21T09:48:04;9.40;99.90
15262;DHT22;7733;51.554;13.590;2023-02-21T09:50:44;9.40;99.90
15262;DHT22;7733;51.554;13.590;2023-02-21T09:53:17;9.40;99.90
15262;DHT22;7733;51.554;13.590;2023-02-21T09:55:53;9.50;99.90
15262;DHT22;7733;51.554;13.590;2023-02-21T09:58:24;9.50;99.90
15262;DHT22;7733;51.554;13.590;2023-02-21T10:00:50;9.40;99.90
15262;DHT22;7733;51.554;13.590;2023-02-21T10:03:30;9.40;99.90
15262;DHT22;7733;51.554;13.590;2023-02-21T10:11:54;9.40;99.90
15262;DHT22;7733;51.554;13.590;2023-02-21T10:17:38;9.40;99.90
15262;DHT22;7733;51.554;13.590;2023-02-21T10:23:12;9.40;99.90
15262;DHT22;7733;51.554;13.590;2023-02-21T10:25:43;9.40;99.90
15262;DHT22;7733;51.554;13.590;2023-02-21T10:28:17;9.40;99.90
15262;DHT22;7733;51.554;13.590;2023-02-21T10:30:48;9.40;99.90
15262;DHT22;7733;51.554;13.590;2023-02-21T10:33:16;9.40;99.90
15262;DHT22;7733;51.554;13.590;2023-02-21T10:35:42;9.40;99.90
15262;DHT22;7733;51.554;13.590;2023-02-21T10:38:24;9.40;99.90
15262;DHT22;7733;51.554;13.590;2023-02-21T10:43:43;9.50;99.90
15262;DHT22;7733;51.554;13.590;2023-02-21T10:49:22;9.50;99.90
15262;DHT22;7733;51.554;13.590;2023-02-21T10:52:09;9.50;99.90
15262;DHT22;7733;51.554;13.590;2023-02-21T10:54:37;9.60;99.90
15262;DHT22;7733;51.554;13.590;2023-02-21T10:57:05;9.60;99.90
15262;DHT22;7733;51.554;13.590;2023-02-21T10:59:40;9.60;99.90
15262;DHT22;7733;51.554;13.590;2023-02-21T11:02:31;9.70;99.90
15262;DHT22;7733;51.554;13.590;2023-02-21T11:05:19;9.70;99.90
15262;DHT22;7733;51.554;13.590;2023-02-21T11:07:58;9.70;99.90
15262;DHT22;7733;51.554;13.590;2023-02-21T11:10:27;9.70;99.90
15262;DHT22;7733;51.554;13.590;2023-02-21T11:13:09;9.80;99.90
15262;DHT22;7733;51.554;13.590;2023-02-21T11:15:39;9.80;99.90
15262;DHT22;7733;51.554;13.590;2023-02-21T11:18:22;9.90;99.90
15262;DHT22;7733;51.554;13.590;2023-02-21T11:20:51;9.90;99.90
15262;DHT22;7733;51.554;13.590;2023-02-21T11:23:24;10.00;99.90
15262;DHT22;7733;51.554;13.590;2023-02-21T11:26:13;10.00;99.90
15262;DHT22;7733;51.554;13.590;2023-02-21T11:28:42;10.20;99.90
15262;DHT22;7733;51.554;13.590;2023-02-21T11:31:32;10.30;99.90
15262;DHT22;7733;51.554;13.590;2023-02-21T11:34:01;10.30;99.90
15262;DHT22;7733;51.554;13.590;2023-02-21T11:36:40;10.30;99.90
15262;DHT22;7733;51.554;13.590;2023-02-21T11:39:25;10.40;99.90
15262;DHT22;7733;51.554;13.590;2023-02-21T11:41:59;10.40;99.90
15262;DHT22;7733;51.554;13.590;2023-02-21T11:44:33;10.40;99.90
15262;DHT22;7733;51.554;13.590;2023-02-21T11:47:28;10.40;99.90
15262;DHT22;7733;51.554;13.590;2023-02-21T11:50:06;10.40;99.90
15262;DHT22;7733;51.554;13.590;2023-02-21T11:56:03;10.50;99.90
15262;DHT22;7733;51.554;13.590;2023-02-21T12:01:47;10.40;99.90
15262;DHT22;7733;51.554;13.590;2023-02-21T12:15:33;10.50;99.90
15262;DHT22;7733;51.554;13.590;2023-02-21T12:18:43;10.60;99.90
15262;DHT22;7733;51.554;13.590;2023-02-21T12:24:06;10.80;99.90
15262;DHT22;7733;51.554;13.590;2023-02-21T12:30:14;10.90;99.90
15262;DHT22;7733;51.554;13.590;2023-02-21T12:33:12;10.90;99.90
15262;DHT22;7733;51.554;13.590;2023-02-21T12:41:56;11.00;99.90
15262;DHT22;7733;51.554;13.590;2023-02-21T12:50:35;11.10;99.90
15262;DHT22;7733;51.554;13.590;2023-02-21T12:56:17;11.20;99.90
15262;DHT22;7733;51.554;13.590;2023-02-21T13:01:32;11.20;99.90
15262;DHT22;7733;51.554;13.590;2023-02-21T13:04:17;11.20;99.90
15262;DHT22;7733;51.554;13.590;2023-02-21T13:07:02;11.20;99.90
15262;DHT22;7733;51.554;13.590;2023-02-21T13:15:24;11.10;99.90
15262;DHT22;7733;51.554;13.590;2023-02-21T13:20:26;11.10;99.90
15262;DHT22;7733;51.554;13.590;2023-02-21T13:29:12;11.10;99.90
15262;DHT22;7733;51.554;13.590;2023-02-21T13:31:43;11.10;99.90
15262;DHT22;7733;51.554;13.590;2023-02-21T13:34:12;11.10;99.90
15262;DHT22;7733;51.554;13.590;2023-02-21T13:36:45;11.10;99.90
15262;DHT22;7733;51.554;13.590;2023-02-21T13:39:18;11.10;99.90
15262;DHT22;7733;51.554;13.590;2023-02-21T13:41:52;11.10;99.90
15262;DHT22;7733;51.554;13.590;2023-02-21T13:44:42;11.10;99.90
15262;DHT22;7733;51.554;13.590;2023-02-21T13:47:21;11.10;99.90
15262;DHT22;7733;51.554;13.590;2023-02-21T13:49:52;11.10;99.90
15262;DHT22;7733;51.554;13.590;2023-02-21T13:57:50;11.10;99.90
15262;DHT22;7733;51.554;13.590;2023-02-21T14:10:51;11.10;99.90
15262;DHT22;7733;51.554;13.590;2023-02-21T14:13:30;11.10;99.90
15262;DHT22;7733;51.554;13.590;2023-02-21T14:21:35;11.00;99.90
15262;DHT22;7733;51.554;13.590;2023-02-21T14:24:10;11.10;99.90
15262;DHT22;7733;51.554;13.590;2023-02-21T14:34:41;11.10;99.90
15262;DHT22;7733;51.554;13.590;2023-02-21T14:37:39;11.20;99.90
15262;DHT22;7733;51.554;13.590;2023-02-21T15:10:32;11.10;99.90
15262;DHT22;7733;51.554;13.590;2023-02-21T15:13:04;11.10;99.90
15262;DHT22;7733;51.554;13.590;2023-02-21T15:15:40;11.10;99.90
15262;DHT22;7733;51.554;13.590;2023-02-21T15:20:37;11.10;99.90
15262;DHT22;7733;51.554;13.590;2023-02-21T15:23:20;11.20;99.90
15262;DHT22;7733;51.554;13.590;2023-02-21T15:25:56;11.20;99.90
15262;DHT22;7733;51.554;13.590;2023-02-21T15:28:26;11.20;99.90
15262;DHT22;7733;51.554;13.590;2023-02-21T15:33:38;11.10;99.90
15262;DHT22;7733;51.554;13.590;2023-02-21T15:36:15;11.10;99.90
15262;DHT22;7733;51.554;13.590;2023-02-21T15:39:01;11.10;99.90
15262;DHT22;7733;51.554;13.590;2023-02-21T15:41:51;11.10;99.90
15262;DHT22;7733;51.554;13.590;2023-02-21T15:44:34;11.10;99.90
15262;DHT22;7733;51.554;13.590;2023-02-21T15:47:17;11.10;99.90
15262;DHT22;7733;51.554;13.590;2023-02-21T15:50:11;11.10;99.90
15262;DHT22;7733;51.554;13.590;2023-02-21T15:52:42;11.10;99.90
15262;DHT22;7733;51.554;13.590;2023-02-21T16:01:10;11.10;99.90
15262;DHT22;7733;51.554;13.590;2023-02-21T16:09:01;11.00;99.90
15262;DHT22;7733;51.554;13.590;2023-02-21T16:17:23;11.00;99.90
15262;DHT22;7733;51.554;13.590;2023-02-21T16:19:59;10.90;99.90
15262;DHT22;7733;51.554;13.590;2023-02-21T16:22:38;10.90;99.90
15262;DHT22;7733;51.554;13.590;2023-02-21T16:27:48;10.90;99.90
15262;DHT22;7733;51.554;13.590;2023-02-21T16:30:29;11.00;99.90
15262;DHT22;7733;51.554;13.590;2023-02-21T16:33:04;11.00;99.90
15262;DHT22;7733;51.554;13.590;2023-02-21T16:35:32;11.00;99.90
15262;DHT22;7733;51.554;13.590;2023-02-21T16:37:59;11.00;99.90
15262;DHT22;7733;51.554;13.590;2023-02-21T16:40:31;10.90;99.90
15262;DHT22;7733;51.554;13.590;2023-02-21T16:43:00;10.90;99.90
15262;DHT22;7733;51.554;13.590;2023-02-21T16:45:28;10.90;99.90
15262;DHT22;7733;51.554;13.590;2023-02-21T16:47:57;10.90;99.90
15262;DHT22;7733;51.554;13.590;2023-02-21T16:50:31;10.90;99.90
15262;DHT22;7733;51.554;13.590;2023-02-21T16:53:00;10.90;99.90
15262;DHT22;7733;51.554;13.590;2023-02-21T16:55:27;10.90;99.90
15262;DHT22;7733;51.554;13.590;2023-02-21T16:58:02;10.90;99.90
15262;DHT22;7733;51.554;13.590;2023-02-21T17:00:33;10.90;99.90
15262;DHT22;7733;51.554;13.590;2023-02-21T17:02:59;10.90;99.90
15262;DHT22;7733;51.554;13.590;2023-02-21T17:05:25;10.90;99.90
15262;DHT22;7733;51.554;13.590;2023-02-21T17:07:52;10.90;99.90
15262;DHT22;7733;51.554;13.590;2023-02-21T17:10:20;10.90;99.90
15262;DHT22;7733;51.554;13.590;2023-02-21T17:12:46;10.90;99.90
15262;DHT22;7733;51.554;13.590;2023-02-21T17:15:12;10.90;99.90
15262;DHT22;7733;51.554;13.590;2023-02-21T17:17:39;10.90;99.90
15262;DHT22;7733;51.554;13.590;2023-02-21T17:20:06;10.90;99.90
15262;DHT22;7733;51.554;13.590;2023-02-21T17:22:33;10.80;99.90
15262;DHT22;7733;51.554;13.590;2023-02-21T17:24:59;10.80;99.90
15262;DHT22;7733;51.554;13.590;2023-02-21T17:27:25;10.80;99.90
15262;DHT22;7733;51.554;13.590;2023-02-21T17:29:51;10.80;99.90
15262;DHT22;7733;51.554;13.590;2023-02-21T17:32:17;10.80;99.90
15262;DHT22;7733;51.554;13.590;2023-02-21T17:34:42;10.90;99.90
15262;DHT22;7733;51.554;13.590;2023-02-21T17:37:10;10.90;99.90
15262;DHT22;7733;51.554;13.590;2023-02-21T17:39:36;10.80;99.90
15262;DHT22;7733;51.554;13.590;2023-02-21T17:42:02;10.80;99.90
15262;DHT22;7733;51.554;13.590;2023-02-21T17:44:28;10.80;99.90
15262;DHT22;7733;51.554;13.590;2023-02-21T17:46:56;10.80;99.90
15262;DHT22;7733;51.554;13.590;2023-02-21T17:49:25;10.80;99.90
15262;DHT22;7733;51.554;13.590;2023-02-21T17:51:52;10.80;99.90
15262;DHT22;7733;51.554;13.590;2023-02-21T17:54:22;10.80;99.90
15262;DHT22;7733;51.554;13.590;2023-02-21T17:56:50;10.80;99.90
15262;DHT22;7733;51.554;13.590;2023-02-21T17:59:16;10.80;99.90
15262;DHT22;7733;51.554;13.590;2023-02-21T18:01:43;10.80;99.90
15262;DHT22;7733;51.554;13.590;2023-02-21T18:04:10;10.80;99.90
15262;DHT22;7733;51.554;13.590;2023-02-21T18:06:38;10.80;99.90
15262;DHT22;7733;51.554;13.590;2023-02-21T18:09:05;10.80;99.90
15262;DHT22;7733;51.554;13.590;2023-02-21T18:11:33;10.80;99.90
15262;DHT22;7733;51.554;13.590;2023-02-21T18:14:02;10.80;99.90
15262;DHT22;7733;51.554;13.590;2023-02-21T18:16:29;10.80;99.90
15262;DHT22;7733;51.554;13.590;2023-02-21T18:18:55;10.80;99.90
15262;DHT22;7733;51.554;13.590;2023-02-21T18:21:21;10.80;99.90
15262;DHT22;7733;51.554;13.590;2023-02-21T18:23:48;10.80;99.90
15262;DHT22;7733;51.554;13.590;2023-02-21T18:26:14;10.80;99.90
15262;DHT22;7733;51.554;13.590;2023-02-21T18:28:41;10.80;99.90
15262;DHT22;7733;51.554;13.590;2023-02-21T18:31:06;10.80;99.90
15262;DHT22;7733;51.554;13.590;2023-02-21T18:33:32;10.80;99.90
15262;DHT22;7733;51.554;13.590;2023-02-21T18:35:58;10.80;99.90
15262;DHT22;7733;51.554;13.590;2023-02-21T18:38:25;10.80;99.90
15262;DHT22;7733;51.554;13.590;2023-02-21T18:40:52;10.70;99.90
15262;DHT22;7733;51.554;13.590;2023-02-21T18:43:27;10.80;99.90
15262;DHT22;7733;51.554;13.590;2023-02-21T18:45:56;10.70;99.90
15262;DHT22;7733;51.554;13.590;2023-02-21T18:48:24;10.70;99.90
15262;DHT22;7733;51.554;13.590;2023-02-21T18:50:50;10.70;99.90
15262;DHT22;7733;51.554;13.590;2023-02-21T18:53:17;10.70;99.90
15262;DHT22;7733;51.554;13.590;2023-02-21T18:55:43;10.70;99.90
15262;DHT22;7733;51.554;13.590;2023-02-21T18:58:12;10.80;99.90
15262;DHT22;7733;51.554;13.590;2023-02-21T19:00:37;10.70;99.90
15262;DHT22;7733;51.554;13.590;2023-02-21T19:03:07;10.60;99.90
15262;DHT22;7733;51.554;13.590;2023-02-21T19:05:33;10.60;99.90
15262;DHT22;7733;51.554;13.590;2023-02-21T19:08:00;10.50;99.90
15262;DHT22;7733;51.554;13.590;2023-02-21T19:10:28;10.50;99.90
15262;DHT22;7733;51.554;13.590;2023-02-21T19:12:55;10.50;99.90
15262;DHT22;7733;51.554;13.590;2023-02-21T19:15:24;10.50;99.90
15262;DHT22;7733;51.554;13.590;2023-02-21T19:17:50;10.50;99.90
15262;DHT22;7733;51.554;13.590;2023-02-21T19:20:16;10.50;99.90
15262;DHT22;7733;51.554;13.590;2023-02-21T19:22:44;10.50;99.90
15262;DHT22;7733;51.554;13.590;2023-02-21T19:25:11;10.50;99.90
15262;DHT22;7733;51.554;13.590;2023-02-21T19:27:40;10.50;99.90
15262;DHT22;7733;51.554;13.590;2023-02-21T19:30:07;10.50;99.90
15262;DHT22;7733;51.554;13.590;2023-02-21T19:32:33;10.50;99.90
15262;DHT22;7733;51.554;13.590;2023-02-21T19:35:02;10.50;99.90
15262;DHT22;7733;51.554;13.590;2023-02-21T19:37:29;10.50;99.90